Cottagegrove, Illinois
Current Conditions -  °F | °C
As of 10:15 PM on Wednesday 17 Dec 2014 (Local Time) from KHSB Reporting Station
Clear Clear  
Wind Chill: 24°   Ceiling: Unl
Heat Index: 32°   Visibility: 10mi
Dew Point: 28°   Wind: 8mph
Humidity: 85%   Direction: 20°NNE
Pressure: 30.31"   Gusts: NA
Location:  37.8101°N, 88.4411°W
Report Text: KHSB 180415Z AUTO 02007KT 10SM CLR 00/M02 A3031 RMK AO2 T10021025
Loading
Personal Weather Stations






























Interactive Weather Map New forecast layout! Learn more

10-Day Weather Forecast

Advertisements
Track Severe Weather on mobile